sensor_id;sensor_type;location;lat;lon;timestamp;P1;P2;P0
69746;PMS7003;57018;50.278;19.134;2022-10-15T00:00:47;100.75;93.50;53.50
69746;PMS7003;57018;50.278;19.134;2022-10-15T00:03:13;96.75;87.75;50.25
69746;PMS7003;57018;50.278;19.134;2022-10-15T00:05:40;104.00;92.50;52.50
69746;PMS7003;57018;50.278;19.134;2022-10-15T00:08:07;99.50;88.00;50.50
69746;PMS7003;57018;50.278;19.134;2022-10-15T00:10:35;96.50;81.25;46.00
69746;PMS7003;57018;50.278;19.134;2022-10-15T00:13:02;89.75;75.50;47.50
69746;PMS7003;57018;50.278;19.134;2022-10-15T00:15:29;85.50;75.25;43.50
69746;PMS7003;57018;50.278;19.134;2022-10-15T00:17:56;85.00;71.75;43.00
69746;PMS7003;57018;50.278;19.134;2022-10-15T00:20:22;92.25;83.00;49.50
69746;PMS7003;57018;50.278;19.134;2022-10-15T00:22:48;81.75;63.50;42.00
69746;PMS7003;57018;50.278;19.134;2022-10-15T00:25:14;87.75;74.25;46.00
69746;PMS7003;57018;50.278;19.134;2022-10-15T00:27:41;92.50;77.75;46.00
69746;PMS7003;57018;50.278;19.134;2022-10-15T00:30:07;82.50;72.25;44.00
69746;PMS7003;57018;50.278;19.134;2022-10-15T00:32:34;87.25;74.25;44.25
69746;PMS7003;57018;50.278;19.134;2022-10-15T00:35:00;88.50;75.50;47.50
69746;PMS7003;57018;50.278;19.134;2022-10-15T00:37:27;91.50;81.50;47.25
69746;PMS7003;57018;50.278;19.134;2022-10-15T00:39:53;88.75;76.25;44.75
69746;PMS7003;57018;50.278;19.134;2022-10-15T00:42:19;84.25;70.50;43.75
69746;PMS7003;57018;50.278;19.134;2022-10-15T00:44:46;92.00;79.75;47.25
69746;PMS7003;57018;50.278;19.134;2022-10-15T00:50:00;82.75;70.25;43.00
69746;PMS7003;57018;50.278;19.134;2022-10-15T00:52:31;84.75;70.00;42.75
69746;PMS7003;57018;50.278;19.134;2022-10-15T00:55:00;80.25;62.50;38.00
69746;PMS7003;57018;50.278;19.134;2022-10-15T00:57:29;88.00;77.25;44.50
69746;PMS7003;57018;50.278;19.134;2022-10-15T00:59:57;83.50;67.75;42.00
69746;PMS7003;57018;50.278;19.134;2022-10-15T01:02:27;83.50;69.25;43.50
69746;PMS7003;57018;50.278;19.134;2022-10-15T01:04:53;85.25;69.00;40.75
69746;PMS7003;57018;50.278;19.134;2022-10-15T01:07:20;86.75;73.50;44.50
69746;PMS7003;57018;50.278;19.134;2022-10-15T01:09:46;86.50;75.75;44.00
69746;PMS7003;57018;50.278;19.134;2022-10-15T01:12:21;82.50;69.00;42.50
69746;PMS7003;57018;50.278;19.134;2022-10-15T01:15:03;87.00;75.00;44.25
69746;PMS7003;57018;50.278;19.134;2022-10-15T01:26:00;83.75;72.50;45.50
69746;PMS7003;57018;50.278;19.134;2022-10-15T01:28:48;87.00;75.50;45.50
69746;PMS7003;57018;50.278;19.134;2022-10-15T01:31:44;78.75;65.25;40.75
69746;PMS7003;57018;50.278;19.134;2022-10-15T01:37:08;82.00;65.75;39.25
69746;PMS7003;57018;50.278;19.134;2022-10-15T01:39:40;81.00;67.50;42.75
69746;PMS7003;57018;50.278;19.134;2022-10-15T01:42:27;87.75;73.25;43.50
69746;PMS7003;57018;50.278;19.134;2022-10-15T01:44:49;83.75;72.25;45.00
69746;PMS7003;57018;50.278;19.134;2022-10-15T01:47:22;83.50;68.75;41.00
69746;PMS7003;57018;50.278;19.134;2022-10-15T01:49:50;81.00;62.50;39.00
69746;PMS7003;57018;50.278;19.134;2022-10-15T01:52:20;82.00;67.50;41.75
69746;PMS7003;57018;50.278;19.134;2022-10-15T01:54:48;84.25;70.25;41.75
69746;PMS7003;57018;50.278;19.134;2022-10-15T01:57:18;86.25;75.00;47.00
69746;PMS7003;57018;50.278;19.134;2022-10-15T01:59:46;72.00;56.25;37.00
69746;PMS7003;57018;50.278;19.134;2022-10-15T02:02:12;83.25;68.25;42.25
69746;PMS7003;57018;50.278;19.134;2022-10-15T02:04:38;88.25;72.50;43.25
69746;PMS7003;57018;50.278;19.134;2022-10-15T02:09:57;87.00;74.25;46.00
69746;PMS7003;57018;50.278;19.134;2022-10-15T02:15:16;83.50;66.50;41.25
69746;PMS7003;57018;50.278;19.134;2022-10-15T02:20:38;79.00;59.00;38.00
69746;PMS7003;57018;50.278;19.134;2022-10-15T02:23:11;72.50;56.00;34.75
69746;PMS7003;57018;50.278;19.134;2022-10-15T02:25:38;82.50;65.25;42.50
69746;PMS7003;57018;50.278;19.134;2022-10-15T02:28:06;80.25;64.75;42.50
69746;PMS7003;57018;50.278;19.134;2022-10-15T02:30:34;81.75;65.25;38.00
69746;PMS7003;57018;50.278;19.134;2022-10-15T02:33:03;80.75;61.75;41.50
69746;PMS7003;57018;50.278;19.134;2022-10-15T02:35:30;80.75;64.75;38.25
69746;PMS7003;57018;50.278;19.134;2022-10-15T02:37:59;81.50;65.75;40.75
69746;PMS7003;57018;50.278;19.134;2022-10-15T02:40:28;79.25;63.00;39.00
69746;PMS7003;57018;50.278;19.134;2022-10-15T02:42:58;73.75;58.25;35.50
69746;PMS7003;57018;50.278;19.134;2022-10-15T02:45:24;73.50;57.00;36.00
69746;PMS7003;57018;50.278;19.134;2022-10-15T02:47:50;70.00;55.75;36.00
69746;PMS7003;57018;50.278;19.134;2022-10-15T02:50:16;69.00;54.75;34.75
69746;PMS7003;57018;50.278;19.134;2022-10-15T02:52:43;67.50;53.25;34.00
69746;PMS7003;57018;50.278;19.134;2022-10-15T02:55:09;75.75;59.25;36.25
69746;PMS7003;57018;50.278;19.134;2022-10-15T02:57:35;74.00;57.00;37.25
69746;PMS7003;57018;50.278;19.134;2022-10-15T03:00:01;75.50;58.50;36.00
69746;PMS7003;57018;50.278;19.134;2022-10-15T03:02:27;70.00;56.50;34.75
69746;PMS7003;57018;50.278;19.134;2022-10-15T03:04:53;75.25;58.00;37.25
69746;PMS7003;57018;50.278;19.134;2022-10-15T03:07:19;73.25;57.00;36.00
69746;PMS7003;57018;50.278;19.134;2022-10-15T03:09:45;71.00;56.25;36.25
69746;PMS7003;57018;50.278;19.134;2022-10-15T03:12:11;68.00;53.50;34.00
69746;PMS7003;57018;50.278;19.134;2022-10-15T03:14:37;71.25;55.75;35.50
69746;PMS7003;57018;50.278;19.134;2022-10-15T03:17:03;69.75;52.25;31.75
69746;PMS7003;57018;50.278;19.134;2022-10-15T03:19:29;69.00;53.75;35.00
69746;PMS7003;57018;50.278;19.134;2022-10-15T03:21:55;71.50;54.75;33.75
69746;PMS7003;57018;50.278;19.134;2022-10-15T03:24:21;68.75;54.75;36.25
69746;PMS7003;57018;50.278;19.134;2022-10-15T03:26:47;70.00;55.50;34.25
69746;PMS7003;57018;50.278;19.134;2022-10-15T03:29:13;71.00;55.00;34.75
69746;PMS7003;57018;50.278;19.134;2022-10-15T03:31:39;67.00;52.75;33.50
69746;PMS7003;57018;50.278;19.134;2022-10-15T03:34:05;68.50;53.00;33.75
69746;PMS7003;57018;50.278;19.134;2022-10-15T03:36:31;67.50;53.25;33.50
69746;PMS7003;57018;50.278;19.134;2022-10-15T03:38:57;66.25;52.25;32.00
69746;PMS7003;57018;50.278;19.134;2022-10-15T03:41:24;68.25;53.50;33.75
69746;PMS7003;57018;50.278;19.134;2022-10-15T03:43:50;83.75;65.00;39.25
69746;PMS7003;57018;50.278;19.134;2022-10-15T03:46:16;99.25;89.00;52.75
69746;PMS7003;57018;50.278;19.134;2022-10-15T03:48:42;94.75;86.00;51.50
69746;PMS7003;57018;50.278;19.134;2022-10-15T03:51:08;90.00;81.75;45.75
69746;PMS7003;57018;50.278;19.134;2022-10-15T03:53:34;81.00;69.00;42.00
69746;PMS7003;57018;50.278;19.134;2022-10-15T03:56:04;78.00;58.25;37.25
69746;PMS7003;57018;50.278;19.134;2022-10-15T03:58:31;68.25;52.00;32.75
69746;PMS7003;57018;50.278;19.134;2022-10-15T04:00:57;71.00;54.50;34.25
69746;PMS7003;57018;50.278;19.134;2022-10-15T04:03:23;71.25;55.75;35.25
69746;PMS7003;57018;50.278;19.134;2022-10-15T04:05:50;67.75;51.00;32.25
69746;PMS7003;57018;50.278;19.134;2022-10-15T04:08:17;64.25;52.00;31.25
69746;PMS7003;57018;50.278;19.134;2022-10-15T04:10:43;67.75;51.25;32.50
69746;PMS7003;57018;50.278;19.134;2022-10-15T04:13:10;63.50;50.50;31.50
69746;PMS7003;57018;50.278;19.134;2022-10-15T04:15:39;64.75;50.50;32.00
69746;PMS7003;57018;50.278;19.134;2022-10-15T04:18:05;63.50;49.75;31.75
69746;PMS7003;57018;50.278;19.134;2022-10-15T04:20:32;57.50;47.25;31.25
69746;PMS7003;57018;50.278;19.134;2022-10-15T04:22:58;65.75;51.00;31.25
69746;PMS7003;57018;50.278;19.134;2022-10-15T04:25:24;59.25;47.25;31.00
69746;PMS7003;57018;50.278;19.134;2022-10-15T04:27:50;63.25;51.00;32.00
69746;PMS7003;57018;50.278;19.134;2022-10-15T04:30:17;60.50;49.25;31.00
69746;PMS7003;57018;50.278;19.134;2022-10-15T04:32:43;68.00;52.75;31.25
69746;PMS7003;57018;50.278;19.134;2022-10-15T04:35:10;63.75;48.25;30.50
69746;PMS7003;57018;50.278;19.134;2022-10-15T04:37:36;64.50;51.50;32.50
69746;PMS7003;57018;50.278;19.134;2022-10-15T04:40:02;69.75;54.50;32.75
69746;PMS7003;57018;50.278;19.134;2022-10-15T04:42:30;61.00;48.25;30.50
69746;PMS7003;57018;50.278;19.134;2022-10-15T04:44:56;58.25;49.25;31.25
69746;PMS7003;57018;50.278;19.134;2022-10-15T04:47:22;62.25;49.75;32.00
69746;PMS7003;57018;50.278;19.134;2022-10-15T04:49:48;69.75;52.75;32.75
69746;PMS7003;57018;50.278;19.134;2022-10-15T04:52:14;69.25;52.00;33.50
69746;PMS7003;57018;50.278;19.134;2022-10-15T04:54:40;61.50;49.00;32.25
69746;PMS7003;57018;50.278;19.134;2022-10-15T04:57:06;62.50;48.50;30.50
69746;PMS7003;57018;50.278;19.134;2022-10-15T04:59:32;64.25;50.50;31.50
69746;PMS7003;57018;50.278;19.134;2022-10-15T05:01:58;64.25;51.00;32.25
69746;PMS7003;57018;50.278;19.134;2022-10-15T05:04:24;68.50;54.00;34.25
69746;PMS7003;57018;50.278;19.134;2022-10-15T05:06:50;65.75;52.25;34.00
69746;PMS7003;57018;50.278;19.134;2022-10-15T05:09:17;64.50;51.25;33.25
69746;PMS7003;57018;50.278;19.134;2022-10-15T05:11:43;64.75;50.50;30.00
69746;PMS7003;57018;50.278;19.134;2022-10-15T05:14:09;68.25;54.50;34.25
69746;PMS7003;57018;50.278;19.134;2022-10-15T05:16:35;68.75;54.25;35.00
69746;PMS7003;57018;50.278;19.134;2022-10-15T05:19:03;69.75;55.00;33.75
69746;PMS7003;57018;50.278;19.134;2022-10-15T05:21:30;68.25;55.00;32.75
69746;PMS7003;57018;50.278;19.134;2022-10-15T05:23:58;62.75;51.25;33.25
69746;PMS7003;57018;50.278;19.134;2022-10-15T05:26:25;68.50;54.75;34.75
69746;PMS7003;57018;50.278;19.134;2022-10-15T05:28:54;70.00;54.25;34.25
69746;PMS7003;57018;50.278;19.134;2022-10-15T05:31:23;69.25;53.50;34.00
69746;PMS7003;57018;50.278;19.134;2022-10-15T05:33:51;71.50;56.75;36.00
69746;PMS7003;57018;50.278;19.134;2022-10-15T05:36:19;74.25;55.75;36.00
69746;PMS7003;57018;50.278;19.134;2022-10-15T05:38:54;73.00;57.50;37.50
69746;PMS7003;57018;50.278;19.134;2022-10-15T05:41:22;74.75;59.00;35.75
69746;PMS7003;57018;50.278;19.134;2022-10-15T05:43:50;66.50;54.25;36.25
69746;PMS7003;57018;50.278;19.134;2022-10-15T05:46:18;73.25;56.00;34.25
69746;PMS7003;57018;50.278;19.134;2022-10-15T05:48:53;69.75;54.75;34.75
69746;PMS7003;57018;50.278;19.134;2022-10-15T05:51:17;72.25;55.75;34.50
69746;PMS7003;57018;50.278;19.134;2022-10-15T05:53:44;70.25;54.25;33.50
69746;PMS7003;57018;50.278;19.134;2022-10-15T05:56:13;68.75;55.00;34.00
69746;PMS7003;57018;50.278;19.134;2022-10-15T05:58:40;67.25;52.00;33.00
69746;PMS7003;57018;50.278;19.134;2022-10-15T06:01:07;66.00;52.50;34.75
69746;PMS7003;57018;50.278;19.134;2022-10-15T06:03:35;61.50;50.75;32.25
69746;PMS7003;57018;50.278;19.134;2022-10-15T06:06:01;64.00;49.75;31.50
69746;PMS7003;57018;50.278;19.134;2022-10-15T06:08:28;63.00;50.50;32.25
69746;PMS7003;57018;50.278;19.134;2022-10-15T06:11:00;69.25;51.50;33.50
69746;PMS7003;57018;50.278;19.134;2022-10-15T06:13:27;60.25;47.25;30.00
69746;PMS7003;57018;50.278;19.134;2022-10-15T06:15:53;64.00;51.25;31.00
69746;PMS7003;57018;50.278;19.134;2022-10-15T06:18:19;58.50;47.00;30.00
69746;PMS7003;57018;50.278;19.134;2022-10-15T06:20:49;59.50;46.00;29.00
69746;PMS7003;57018;50.278;19.134;2022-10-15T06:23:17;59.75;48.25;30.25
69746;PMS7003;57018;50.278;19.134;2022-10-15T06:25:43;61.00;49.75;30.25
69746;PMS7003;57018;50.278;19.134;2022-10-15T06:28:10;60.50;46.75;30.00
69746;PMS7003;57018;50.278;19.134;2022-10-15T06:30:36;54.50;46.75;30.00
69746;PMS7003;57018;50.278;19.134;2022-10-15T06:33:02;53.25;43.25;27.25
69746;PMS7003;57018;50.278;19.134;2022-10-15T06:35:29;59.00;47.25;29.00
69746;PMS7003;57018;50.278;19.134;2022-10-15T06:37:58;58.25;48.50;30.25
69746;PMS7003;57018;50.278;19.134;2022-10-15T06:40:25;57.00;47.00;30.25
69746;PMS7003;57018;50.278;19.134;2022-10-15T06:42:51;57.50;44.25;28.00
69746;PMS7003;57018;50.278;19.134;2022-10-15T06:45:17;58.00;47.25;29.75
69746;PMS7003;57018;50.278;19.134;2022-10-15T06:47:43;59.00;48.00;30.00
69746;PMS7003;57018;50.278;19.134;2022-10-15T06:50:09;58.75;47.50;29.75
69746;PMS7003;57018;50.278;19.134;2022-10-15T06:52:35;57.75;47.00;29.50
69746;PMS7003;57018;50.278;19.134;2022-10-15T06:55:02;60.50;47.75;30.00
69746;PMS7003;57018;50.278;19.134;2022-10-15T06:57:29;58.00;47.00;30.25
69746;PMS7003;57018;50.278;19.134;2022-10-15T06:59:56;59.50;46.25;29.25
69746;PMS7003;57018;50.278;19.134;2022-10-15T07:02:22;59.00;47.25;29.00
69746;PMS7003;57018;50.278;19.134;2022-10-15T07:04:49;51.25;41.25;26.25
69746;PMS7003;57018;50.278;19.134;2022-10-15T07:07:15;61.25;47.00;31.00
69746;PMS7003;57018;50.278;19.134;2022-10-15T07:09:42;57.75;45.75;28.25
69746;PMS7003;57018;50.278;19.134;2022-10-15T07:12:08;56.75;46.25;28.75
69746;PMS7003;57018;50.278;19.134;2022-10-15T07:14:34;48.00;40.00;23.75
69746;PMS7003;57018;50.278;19.134;2022-10-15T07:17:00;54.00;45.25;28.00
69746;PMS7003;57018;50.278;19.134;2022-10-15T07:19:26;52.25;40.50;24.50
69746;PMS7003;57018;50.278;19.134;2022-10-15T07:21:53;55.00;43.50;28.00
69746;PMS7003;57018;50.278;19.134;2022-10-15T07:24:19;54.00;44.00;27.00
69746;PMS7003;57018;50.278;19.134;2022-10-15T07:26:48;53.75;43.00;27.75
69746;PMS7003;57018;50.278;19.134;2022-10-15T07:29:15;55.00;43.25;28.25
69746;PMS7003;57018;50.278;19.134;2022-10-15T07:31:41;52.00;43.25;27.50
69746;PMS7003;57018;50.278;19.134;2022-10-15T07:34:08;49.50;40.00;26.00
69746;PMS7003;57018;50.278;19.134;2022-10-15T07:36:34;52.25;42.50;26.75
69746;PMS7003;57018;50.278;19.134;2022-10-15T07:39:00;49.50;39.50;26.00
69746;PMS7003;57018;50.278;19.134;2022-10-15T07:41:26;51.25;41.25;27.25
69746;PMS7003;57018;50.278;19.134;2022-10-15T07:43:52;48.50;41.00;27.50
69746;PMS7003;57018;50.278;19.134;2022-10-15T07:46:18;55.25;42.75;27.25
69746;PMS7003;57018;50.278;19.134;2022-10-15T07:48:45;55.25;46.00;30.50
69746;PMS7003;57018;50.278;19.134;2022-10-15T07:51:11;53.75;42.25;26.75
69746;PMS7003;57018;50.278;19.134;2022-10-15T07:53:37;55.00;46.75;30.25
69746;PMS7003;57018;50.278;19.134;2022-10-15T07:56:05;52.25;42.75;27.25
69746;PMS7003;57018;50.278;19.134;2022-10-15T07:58:33;56.25;43.75;28.75
69746;PMS7003;57018;50.278;19.134;2022-10-15T08:01:00;56.50;44.75;27.25
69746;PMS7003;57018;50.278;19.134;2022-10-15T08:03:27;57.25;45.25;29.00
69746;PMS7003;57018;50.278;19.134;2022-10-15T08:05:53;58.00;44.00;26.50
69746;PMS7003;57018;50.278;19.134;2022-10-15T08:08:20;54.75;44.50;28.50
69746;PMS7003;57018;50.278;19.134;2022-10-15T08:10:47;51.25;43.75;27.75
69746;PMS7003;57018;50.278;19.134;2022-10-15T08:13:13;44.75;38.25;25.25
69746;PMS7003;57018;50.278;19.134;2022-10-15T08:15:40;46.00;38.50;25.00
69746;PMS7003;57018;50.278;19.134;2022-10-15T08:18:07;43.50;36.75;24.50
69746;PMS7003;57018;50.278;19.134;2022-10-15T08:20:35;53.50;39.00;24.50
69746;PMS7003;57018;50.278;19.134;2022-10-15T08:23:02;41.75;37.75;24.50
69746;PMS7003;57018;50.278;19.134;2022-10-15T08:25:28;39.25;35.75;22.00
69746;PMS7003;57018;50.278;19.134;2022-10-15T08:27:56;42.00;36.00;24.50
69746;PMS7003;57018;50.278;19.134;2022-10-15T08:30:24;45.50;37.75;24.00
69746;PMS7003;57018;50.278;19.134;2022-10-15T08:32:50;45.75;38.00;25.50
69746;PMS7003;57018;50.278;19.134;2022-10-15T08:35:17;39.50;34.25;22.50
69746;PMS7003;57018;50.278;19.134;2022-10-15T08:37:43;43.25;35.25;23.00
69746;PMS7003;57018;50.278;19.134;2022-10-15T08:40:10;40.50;35.50;23.00
69746;PMS7003;57018;50.278;19.134;2022-10-15T08:42:39;39.25;35.00;23.25
69746;PMS7003;57018;50.278;19.134;2022-10-15T08:47:47;43.00;34.00;22.75
69746;PMS7003;57018;50.278;19.134;2022-10-15T08:50:38;47.75;35.75;23.25
69746;PMS7003;57018;50.278;19.134;2022-10-15T08:53:04;38.25;33.50;22.25
69746;PMS7003;57018;50.278;19.134;2022-10-15T08:55:34;44.50;39.00;23.75
69746;PMS7003;57018;50.278;19.134;2022-10-15T09:00:52;38.75;33.75;21.50
69746;PMS7003;57018;50.278;19.134;2022-10-15T09:14:17;37.50;30.75;20.75
69746;PMS7003;57018;50.278;19.134;2022-10-15T09:16:47;33.50;31.25;21.50
69746;PMS7003;57018;50.278;19.134;2022-10-15T09:19:18;33.00;31.75;21.50
69746;PMS7003;57018;50.278;19.134;2022-10-15T09:21:46;35.25;31.25;20.50
69746;PMS7003;57018;50.278;19.134;2022-10-15T09:24:16;34.50;33.25;21.75
69746;PMS7003;57018;50.278;19.134;2022-10-15T09:32:24;25.75;22.50;13.50
69746;PMS7003;57018;50.278;19.134;2022-10-15T09:34:55;29.75;29.75;21.00
69746;PMS7003;57018;50.278;19.134;2022-10-15T09:40:14;26.50;25.00;16.00
69746;PMS7003;57018;50.278;19.134;2022-10-15T09:42:46;24.00;23.25;16.50
69746;PMS7003;57018;50.278;19.134;2022-10-15T09:45:15;24.75;24.50;17.75
69746;PMS7003;57018;50.278;19.134;2022-10-15T09:47:42;23.50;21.75;16.00
69746;PMS7003;57018;50.278;19.134;2022-10-15T09:50:10;39.25;34.25;23.50
69746;PMS7003;57018;50.278;19.134;2022-10-15T09:55:40;27.50;24.50;17.25
69746;PMS7003;57018;50.278;19.134;2022-10-15T10:03:27;24.75;21.25;16.00
69746;PMS7003;57018;50.278;19.134;2022-10-15T10:06:02;21.25;20.50;13.75
69746;PMS7003;57018;50.278;19.134;2022-10-15T10:08:33;22.00;22.00;15.50
69746;PMS7003;57018;50.278;19.134;2022-10-15T10:11:05;27.00;21.50;14.50
69746;PMS7003;57018;50.278;19.134;2022-10-15T10:13:36;24.75;21.75;14.75
69746;PMS7003;57018;50.278;19.134;2022-10-15T10:16:04;22.00;18.25;11.50
69746;PMS7003;57018;50.278;19.134;2022-10-15T10:18:33;19.50;18.75;11.75
69746;PMS7003;57018;50.278;19.134;2022-10-15T10:21:02;17.25;17.25;10.25
69746;PMS7003;57018;50.278;19.134;2022-10-15T10:23:37;19.50;19.25;14.25
69746;PMS7003;57018;50.278;19.134;2022-10-15T10:26:08;17.25;17.25;10.25
69746;PMS7003;57018;50.278;19.134;2022-10-15T10:28:35;19.75;19.75;14.50
69746;PMS7003;57018;50.278;19.134;2022-10-15T10:31:04;20.50;17.25;12.50
69746;PMS7003;57018;50.278;19.134;2022-10-15T10:33:33;23.25;20.25;14.50
69746;PMS7003;57018;50.278;19.134;2022-10-15T10:36:17;25.25;20.75;14.00
69746;PMS7003;57018;50.278;19.134;2022-10-15T10:39:00;15.75;14.00;9.75
69746;PMS7003;57018;50.278;19.134;2022-10-15T10:44:19;19.25;18.25;12.25
69746;PMS7003;57018;50.278;19.134;2022-10-15T10:47:00;25.00;25.00;16.75
69746;PMS7003;57018;50.278;19.134;2022-10-15T10:49:36;31.25;28.00;17.25
69746;PMS7003;57018;50.278;19.134;2022-10-15T10:52:04;20.50;20.00;14.50
69746;PMS7003;57018;50.278;19.134;2022-10-15T10:54:31;20.50;20.25;12.50
69746;PMS7003;57018;50.278;19.134;2022-10-15T10:56:58;24.50;19.25;12.50
69746;PMS7003;57018;50.278;19.134;2022-10-15T10:59:27;23.00;22.25;12.75
69746;PMS7003;57018;50.278;19.134;2022-10-15T11:02:01;16.25;16.25;11.25
69746;PMS7003;57018;50.278;19.134;2022-10-15T11:04:31;19.25;17.50;12.75
69746;PMS7003;57018;50.278;19.134;2022-10-15T11:07:03;21.00;18.50;11.50
69746;PMS7003;57018;50.278;19.134;2022-10-15T11:09:52;22.00;18.50;11.50
69746;PMS7003;57018;50.278;19.134;2022-10-15T11:15:27;20.00;20.00;14.50
69746;PMS7003;57018;50.278;19.134;2022-10-15T11:23:31;20.25;20.25;12.50
69746;PMS7003;57018;50.278;19.134;2022-10-15T11:28:50;21.25;17.25;12.75
69746;PMS7003;57018;50.278;19.134;2022-10-15T11:31:38;24.00;22.50;14.75
69746;PMS7003;57018;50.278;19.134;2022-10-15T11:40:15;18.25;17.00;12.25
69746;PMS7003;57018;50.278;19.134;2022-10-15T11:50:33;14.75;14.25;9.25
69746;PMS7003;57018;50.278;19.134;2022-10-15T11:55:51;13.25;13.25;8.50
69746;PMS7003;57018;50.278;19.134;2022-10-15T12:01:06;18.00;14.25;9.75
69746;PMS7003;57018;50.278;19.134;2022-10-15T12:03:34;18.25;14.50;10.00
69746;PMS7003;57018;50.278;19.134;2022-10-15T12:06:08;18.50;17.75;10.75
69746;PMS7003;57018;50.278;19.134;2022-10-15T12:08:33;17.00;13.50;9.75
69746;PMS7003;57018;50.278;19.134;2022-10-15T12:16:27;22.25;19.50;10.75
69746;PMS7003;57018;50.278;19.134;2022-10-15T12:19:09;17.75;15.00;10.50
69746;PMS7003;57018;50.278;19.134;2022-10-15T12:29:50;16.50;13.50;9.25
69746;PMS7003;57018;50.278;19.134;2022-10-15T12:32:22;13.75;9.75;5.75
69746;PMS7003;57018;50.278;19.134;2022-10-15T12:35:00;18.25;16.50;9.50
69746;PMS7003;57018;50.278;19.134;2022-10-15T12:37:30;15.50;15.25;10.00
69746;PMS7003;57018;50.278;19.134;2022-10-15T12:40:01;18.50;17.50;11.50
69746;PMS7003;57018;50.278;19.134;2022-10-15T12:42:32;17.50;15.50;9.50
69746;PMS7003;57018;50.278;19.134;2022-10-15T12:45:02;12.25;11.75;9.50
69746;PMS7003;57018;50.278;19.134;2022-10-15T12:50:21;18.25;15.75;9.50
69746;PMS7003;57018;50.278;19.134;2022-10-15T12:52:53;17.25;17.25;11.00
69746;PMS7003;57018;50.278;19.134;2022-10-15T13:00:51;12.50;12.50;7.75
69746;PMS7003;57018;50.278;19.134;2022-10-15T13:03:26;18.25;16.75;9.75
69746;PMS7003;57018;50.278;19.134;2022-10-15T13:05:49;13.75;12.00;7.50
69746;PMS7003;57018;50.278;19.134;2022-10-15T13:08:24;13.50;13.50;8.50
69746;PMS7003;57018;50.278;19.134;2022-10-15T13:10:53;17.50;16.00;10.25
69746;PMS7003;57018;50.278;19.134;2022-10-15T13:13:23;15.75;15.00;8.75
69746;PMS7003;57018;50.278;19.134;2022-10-15T13:16:05;16.75;14.00;9.75
69746;PMS7003;57018;50.278;19.134;2022-10-15T13:18:29;14.25;14.25;10.50
69746;PMS7003;57018;50.278;19.134;2022-10-15T13:20:56;15.25;14.25;8.25
69746;PMS7003;57018;50.278;19.134;2022-10-15T13:23:24;16.25;12.50;9.25
69746;PMS7003;57018;50.278;19.134;2022-10-15T13:26:08;17.25;15.25;9.25
69746;PMS7003;57018;50.278;19.134;2022-10-15T13:28:37;15.25;12.50;9.50
69746;PMS7003;57018;50.278;19.134;2022-10-15T13:31:12;13.25;13.00;10.00
69746;PMS7003;57018;50.278;19.134;2022-10-15T13:33:42;16.25;16.25;10.25
69746;PMS7003;57018;50.278;19.134;2022-10-15T13:36:16;18.75;14.75;10.00
69746;PMS7003;57018;50.278;19.134;2022-10-15T13:38:42;21.25;17.50;12.50
69746;PMS7003;57018;50.278;19.134;2022-10-15T13:41:08;19.00;17.25;12.25
69746;PMS7003;57018;50.278;19.134;2022-10-15T13:43:34;15.25;15.00;9.50
69746;PMS7003;57018;50.278;19.134;2022-10-15T13:46:00;17.00;17.00;10.00
69746;PMS7003;57018;50.278;19.134;2022-10-15T13:48:27;16.25;15.25;10.00
69746;PMS7003;57018;50.278;19.134;2022-10-15T13:51:01;20.75;14.50;8.75
69746;PMS7003;57018;50.278;19.134;2022-10-15T13:53:35;14.25;14.25;9.50
69746;PMS7003;57018;50.278;19.134;2022-10-15T13:56:26;23.25;16.75;12.75
69746;PMS7003;57018;50.278;19.134;2022-10-15T13:58:46;19.25;17.25;10.50
69746;PMS7003;57018;50.278;19.134;2022-10-15T14:01:13;21.50;17.25;12.25
69746;PMS7003;57018;50.278;19.134;2022-10-15T14:03:46;17.75;17.00;11.25
69746;PMS7003;57018;50.278;19.134;2022-10-15T14:08:57;31.00;27.00;16.50
69746;PMS7003;57018;50.278;19.134;2022-10-15T14:11:27;23.50;22.00;15.75
69746;PMS7003;57018;50.278;19.134;2022-10-15T14:13:55;21.75;19.75;15.00
69746;PMS7003;57018;50.278;19.134;2022-10-15T14:16:25;22.25;20.50;13.75
69746;PMS7003;57018;50.278;19.134;2022-10-15T14:21:35;31.25;22.75;15.00
69746;PMS7003;57018;50.278;19.134;2022-10-15T14:24:06;26.25;22.25;14.00
69746;PMS7003;57018;50.278;19.134;2022-10-15T14:26:38;22.50;20.50;14.25
69746;PMS7003;57018;50.278;19.134;2022-10-15T14:29:04;23.25;22.25;15.75
69746;PMS7003;57018;50.278;19.134;2022-10-15T14:31:44;27.75;26.25;16.00
69746;PMS7003;57018;50.278;19.134;2022-10-15T14:34:01;20.75;19.50;14.25
69746;PMS7003;57018;50.278;19.134;2022-10-15T14:36:29;24.50;23.50;15.00
69746;PMS7003;57018;50.278;19.134;2022-10-15T14:39:21;20.50;18.00;13.50
69746;PMS7003;57018;50.278;19.134;2022-10-15T14:42:01;19.75;18.00;13.25
69746;PMS7003;57018;50.278;19.134;2022-10-15T14:44:39;21.25;19.00;14.00
69746;PMS7003;57018;50.278;19.134;2022-10-15T14:47:18;20.75;17.75;14.25
69746;PMS7003;57018;50.278;19.134;2022-10-15T14:49:47;20.50;19.25;14.00
69746;PMS7003;57018;50.278;19.134;2022-10-15T14:52:23;25.00;22.00;15.50
69746;PMS7003;57018;50.278;19.134;2022-10-15T14:57:39;21.50;18.75;12.50
69746;PMS7003;57018;50.278;19.134;2022-10-15T15:00:14;18.75;18.75;14.25
69746;PMS7003;57018;50.278;19.134;2022-10-15T15:02:55;23.75;23.75;15.50
69746;PMS7003;57018;50.278;19.134;2022-10-15T15:05:24;23.75;22.00;15.50
69746;PMS7003;57018;50.278;19.134;2022-10-15T15:07:52;22.25;21.50;15.75
69746;PMS7003;57018;50.278;19.134;2022-10-15T15:10:20;23.75;21.25;16.50
69746;PMS7003;57018;50.278;19.134;2022-10-15T15:12:49;26.00;21.00;14.75
69746;PMS7003;57018;50.278;19.134;2022-10-15T15:15:18;26.25;26.25;16.50
69746;PMS7003;57018;50.278;19.134;2022-10-15T15:17:46;27.50;23.50;15.50
69746;PMS7003;57018;50.278;19.134;2022-10-15T15:20:13;25.25;23.75;17.50
69746;PMS7003;57018;50.278;19.134;2022-10-15T15:22:41;26.75;26.75;17.50
69746;PMS7003;57018;50.278;19.134;2022-10-15T15:25:18;35.75;26.50;17.25
69746;PMS7003;57018;50.278;19.134;2022-10-15T15:27:46;32.25;29.75;18.75
69746;PMS7003;57018;50.278;19.134;2022-10-15T15:30:13;30.00;29.00;18.25
69746;PMS7003;57018;50.278;19.134;2022-10-15T15:32:42;23.50;23.50;17.75
69746;PMS7003;57018;50.278;19.134;2022-10-15T15:35:12;28.25;26.00;17.25
69746;PMS7003;57018;50.278;19.134;2022-10-15T15:37:38;31.75;28.75;21.25
69746;PMS7003;57018;50.278;19.134;2022-10-15T15:40:05;29.25;29.25;20.25
69746;PMS7003;57018;50.278;19.134;2022-10-15T15:42:31;27.25;24.00;17.75